Time;durP1;ratioP1;P1;durP2;ratioP2;P2;SDS_P1;SDS_P2;PMS_P1;PMS_P2;Temp;Humidity;BMP_temperature;BMP_pressure;BME280_temperature;BME280_humidity;BME280_pressure;Samples;Min_cycle;Max_cycle;Signal;HPM_P1;HPM_P2
2021/08/22 00:02:05;;;;;;;6.20;4.83;;;20.50;99.90;;;;;;4998418;28;20541;-68
2021/08/22 00:04:31;;;;;;;5.57;4.60;;;20.60;99.90;;;;;;5003373;28;20570;-68
2021/08/22 00:06:57;;;;;;;4.00;3.37;;;20.60;99.90;;;;;;5003792;28;20197;-68
2021/08/22 00:09:23;;;;;;;3.70;3.17;;;20.60;99.90;;;;;;5000409;28;20220;-68
2021/08/22 00:11:49;;;;;;;4.90;3.87;;;20.60;99.90;;;;;;5010229;28;20185;-67
2021/08/22 00:14:17;;;;;;;6.53;3.90;;;20.40;99.90;;;;;;5008630;28;20436;-68
2021/08/22 00:16:43;;;;;;;4.97;3.63;;;20.40;99.90;;;;;;5002066;28;20944;-68
2021/08/22 00:19:08;;;;;;;4.80;3.43;;;20.60;99.90;;;;;;5008493;28;20539;-68
2021/08/22 00:21:34;;;;;;;6.90;3.67;;;20.60;99.90;;;;;;5002900;28;20193;-68
2021/08/22 00:24:00;;;;;;;4.97;3.77;;;20.30;99.90;;;;;;5003095;28;20197;-68
2021/08/22 00:26:26;;;;;;;5.00;3.27;;;20.60;99.90;;;;;;5002388;28;20201;-68
2021/08/22 00:28:52;;;;;;;3.70;3.40;;;20.40;99.90;;;;;;5006853;28;20278;-68
2021/08/22 00:31:17;;;;;;;4.87;3.80;;;20.30;99.90;;;;;;4999310;28;20453;-68
2021/08/22 00:33:43;;;;;;;6.50;3.63;;;20.30;99.90;;;;;;5003346;28;20750;-68
2021/08/22 00:36:09;;;;;;;5.20;3.23;;;20.60;99.90;;;;;;5000417;28;20260;-68
2021/08/22 00:38:34;;;;;;;4.63;3.60;;;20.60;99.90;;;;;;5001473;28;20288;-68
2021/08/22 00:41:02;;;;;;;4.33;3.57;;;20.40;99.90;;;;;;5000666;28;20200;-68
2021/08/22 00:43:28;;;;;;;7.17;3.93;;;20.70;99.90;;;;;;5000898;28;20643;-67
2021/08/22 00:45:54;;;;;;;5.03;3.87;;;20.70;99.90;;;;;;5002567;28;20448;-69
2021/08/22 00:48:20;;;;;;;4.67;3.90;;;20.40;99.90;;;;;;4995876;28;20456;-68
2021/08/22 00:50:47;;;;;;;5.20;3.40;;;20.00;99.90;;;;;;5002415;28;20856;-68
2021/08/22 00:53:13;;;;;;;5.57;3.47;;;20.40;99.90;;;;;;5000716;28;20189;-65
2021/08/22 00:55:39;;;;;;;5.47;3.10;;;20.60;99.90;;;;;;5001080;28;20440;-66
2021/08/22 00:58:05;;;;;;;3.93;3.53;;;20.70;99.90;;;;;;5003225;28;20895;-66
2021/08/22 01:00:33;;;;;;;3.80;3.13;;;20.50;99.90;;;;;;5004484;28;20315;-68
2021/08/22 01:03:37;;;;;;;6.20;3.73;;;20.60;99.90;;;;;;5016642;28;20182;-65
2021/08/22 01:06:14;;;;;;;4.10;3.27;;;20.70;99.90;;;;;;5000371;28;20439;-65
2021/08/22 01:08:42;;;;;;;7.73;3.10;;;20.90;99.90;;;;;;4997948;28;20448;-64
2021/08/22 01:11:15;;;;;;;4.50;3.30;;;20.80;99.90;;;;;;5000803;28;20470;-65
2021/08/22 01:13:52;;;;;;;3.80;3.07;;;20.60;99.90;;;;;;5003081;28;20444;-66
2021/08/22 01:16:19;;;;;;;4.57;3.00;;;20.90;99.90;;;;;;5002454;28;20440;-68
2021/08/22 01:18:47;;;;;;;4.27;3.40;;;20.90;99.90;;;;;;5000438;28;20710;-64
2021/08/22 01:21:18;;;;;;;2.80;2.40;;;20.80;99.90;;;;;;4999731;28;20475;-64
2021/08/22 01:23:50;;;;;;;6.60;3.40;;;20.80;99.90;;;;;;5001821;28;20432;-64
2021/08/22 01:26:18;;;;;;;3.43;3.00;;;20.70;99.90;;;;;;5001063;28;20428;-66
2021/08/22 01:28:49;;;;;;;3.60;3.07;;;20.60;99.90;;;;;;5002704;28;20455;-68
2021/08/22 01:31:18;;;;;;;4.10;2.73;;;20.60;99.90;;;;;;5002530;28;20445;-68
2021/08/22 01:33:44;;;;;;;5.20;3.07;;;20.80;99.90;;;;;;5000303;28;20441;-67
2021/08/22 01:36:12;;;;;;;4.87;3.00;;;20.90;99.90;;;;;;5001503;28;20424;-68
2021/08/22 01:38:38;;;;;;;3.80;3.27;;;20.90;99.90;;;;;;5000781;28;20470;-68
2021/08/22 01:41:05;;;;;;;4.00;3.00;;;20.90;99.90;;;;;;4999798;28;21242;-69
2021/08/22 01:43:32;;;;;;;4.03;2.93;;;20.70;99.90;;;;;;4999155;28;20866;-68
2021/08/22 01:45:59;;;;;;;3.90;2.90;;;20.70;99.90;;;;;;4999867;28;20506;-67
2021/08/22 01:48:26;;;;;;;2.60;2.40;;;20.60;99.90;;;;;;5003085;28;20438;-68
2021/08/22 01:51:02;;;;;;;5.10;3.53;;;20.50;99.90;;;;;;5002339;28;20464;-65
2021/08/22 01:53:33;;;;;;;6.50;3.47;;;20.30;99.90;;;;;;5002636;28;20437;-66
2021/08/22 01:55:59;;;;;;;4.27;3.73;;;20.30;99.90;;;;;;5002826;28;20420;-68
2021/08/22 01:58:26;;;;;;;4.10;3.60;;;20.40;99.90;;;;;;5002420;28;20827;-68
2021/08/22 02:00:52;;;;;;;8.23;2.80;;;20.20;99.90;;;;;;5000955;28;20198;-68
2021/08/22 02:03:27;;;;;;;4.10;3.27;;;20.20;99.90;;;;;;5003097;28;20447;-66
2021/08/22 02:06:01;;;;;;;4.07;3.10;;;20.00;99.90;;;;;;5002558;28;21054;-67
2021/08/22 02:08:31;;;;;;;3.97;3.47;;;20.00;99.90;;;;;;5000432;28;20466;-68
2021/08/22 02:11:08;;;;;;;3.50;3.03;;;20.00;99.90;;;;;;5003169;28;20904;-67
2021/08/22 02:13:37;;;;;;;5.50;3.30;;;20.00;99.90;;;;;;5001905;28;20958;-68
2021/08/22 02:16:06;;;;;;;4.90;3.63;;;20.10;99.90;;;;;;5002141;28;20435;-67
2021/08/22 02:18:34;;;;;;;3.40;3.10;;;20.00;99.90;;;;;;5017636;28;20466;-68
2021/08/22 02:21:00;;;;;;;4.77;3.40;;;20.10;99.90;;;;;;5004610;28;20868;-64
2021/08/22 02:23:26;;;;;;;3.20;2.90;;;20.00;99.90;;;;;;5008686;28;20441;-64
2021/08/22 02:25:52;;;;;;;4.80;3.53;;;20.00;99.90;;;;;;5005335;28;20447;-65
2021/08/22 02:28:19;;;;;;;4.03;2.90;;;20.10;99.90;;;;;;5007040;28;20192;-65
2021/08/22 02:30:45;;;;;;;3.83;3.43;;;20.20;99.90;;;;;;5006190;28;20886;-66
2021/08/22 02:33:11;;;;;;;4.37;2.80;;;20.10;99.90;;;;;;5007170;28;20475;-65
2021/08/22 02:35:36;;;;;;;6.27;3.33;;;20.10;99.90;;;;;;5004905;28;20197;-66
2021/08/22 02:38:05;;;;;;;4.20;2.73;;;20.10;99.90;;;;;;5003892;28;20211;-67
2021/08/22 02:40:30;;;;;;;3.30;3.00;;;20.00;99.90;;;;;;5006480;28;20556;-65
2021/08/22 02:42:56;;;;;;;3.83;3.43;;;20.10;99.90;;;;;;5002900;28;20437;-65
2021/08/22 02:45:22;;;;;;;3.67;3.30;;;20.20;99.90;;;;;;5005646;28;20224;-65
2021/08/22 02:47:47;;;;;;;4.07;3.47;;;19.90;99.90;;;;;;5006095;28;20204;-65
2021/08/22 02:50:13;;;;;;;4.73;3.50;;;19.90;99.90;;;;;;5003778;28;20658;-65
2021/08/22 02:52:40;;;;;;;6.37;3.23;;;19.90;99.90;;;;;;5003988;28;20288;-67
2021/08/22 02:55:05;;;;;;;5.17;3.00;;;19.80;99.90;;;;;;5006081;28;20628;-67
2021/08/22 02:57:31;;;;;;;4.07;3.10;;;19.90;99.90;;;;;;5002836;28;20428;-67
2021/08/22 02:59:57;;;;;;;4.87;3.03;;;19.80;99.90;;;;;;5004991;28;20460;-67
2021/08/22 03:02:22;;;;;;;4.77;3.10;;;19.70;99.90;;;;;;5004246;28;20234;-69
2021/08/22 03:04:48;;;;;;;6.83;3.53;;;19.60;99.90;;;;;;5006381;28;20585;-68
2021/08/22 03:07:14;;;;;;;5.00;3.60;;;19.60;99.90;;;;;;5005708;28;20216;-68
2021/08/22 03:09:40;;;;;;;4.87;3.87;;;19.50;99.90;;;;;;5005146;28;20324;-69
2021/08/22 03:12:06;;;;;;;3.70;2.97;;;19.80;99.90;;;;;;5003060;28;21024;-68
2021/08/22 03:14:32;;;;;;;3.70;3.13;;;19.90;99.90;;;;;;5003328;28;20204;-67
2021/08/22 03:16:57;;;;;;;4.30;2.90;;;19.80;99.90;;;;;;5003869;28;20455;-67
2021/08/22 03:19:23;;;;;;;3.50;3.07;;;19.70;99.90;;;;;;5001856;28;20695;-67
2021/08/22 03:21:48;;;;;;;4.93;3.83;;;19.80;99.90;;;;;;5002814;28;20244;-68
2021/08/22 03:24:14;;;;;;;4.53;2.90;;;19.80;99.90;;;;;;5005446;28;20678;-68
2021/08/22 03:26:40;;;;;;;4.03;3.53;;;19.70;99.90;;;;;;5002776;28;20194;-68
2021/08/22 03:29:06;;;;;;;4.50;3.40;;;19.70;99.90;;;;;;5004335;28;20220;-64
2021/08/22 03:31:32;;;;;;;4.03;3.20;;;19.60;99.90;;;;;;5004104;28;20467;-63
2021/08/22 03:33:58;;;;;;;4.50;3.40;;;19.50;99.90;;;;;;5005942;28;20504;-67
2021/08/22 03:36:23;;;;;;;3.40;2.90;;;19.60;99.90;;;;;;5003197;28;20670;-68
2021/08/22 03:38:49;;;;;;;4.17;3.50;;;19.60;99.90;;;;;;5002983;28;20215;-68
2021/08/22 03:41:15;;;;;;;4.73;3.10;;;19.40;99.90;;;;;;5006475;28;20186;-65
2021/08/22 03:43:41;;;;;;;5.43;3.67;;;19.40;99.90;;;;;;5003728;28;20186;-68
2021/08/22 03:46:06;;;;;;;5.03;3.20;;;19.60;99.90;;;;;;5004581;28;20444;-68
2021/08/22 03:48:32;;;;;;;4.47;3.43;;;19.60;99.90;;;;;;5004794;28;20274;-67
2021/08/22 03:50:58;;;;;;;4.30;3.87;;;19.50;99.90;;;;;;5001446;28;20241;-68
2021/08/22 03:53:23;;;;;;;4.87;3.73;;;19.50;99.90;;;;;;5003181;28;20455;-68
2021/08/22 03:55:49;;;;;;;4.43;3.30;;;19.60;99.90;;;;;;5003523;28;20218;-67
2021/08/22 03:58:15;;;;;;;5.80;3.40;;;19.60;99.90;;;;;;5017904;28;20224;-67
2021/08/22 04:00:40;;;;;;;3.50;3.20;;;19.50;99.90;;;;;;5004982;28;20182;-67
2021/08/22 04:03:06;;;;;;;3.53;3.23;;;19.50;99.90;;;;;;5004789;28;20194;-64
2021/08/22 04:05:33;;;;;;;6.27;3.60;;;19.60;99.90;;;;;;5003891;28;20562;-64
2021/08/22 04:07:59;;;;;;;3.87;3.47;;;19.60;99.90;;;;;;5004244;28;20392;-68
2021/08/22 04:10:26;;;;;;;5.93;3.60;;;19.50;99.90;;;;;;5003044;28;20563;-67
2021/08/22 04:12:55;;;;;;;5.07;3.47;;;19.30;99.90;;;;;;5005393;28;20498;-68
2021/08/22 04:15:21;;;;;;;5.20;4.50;;;19.40;99.90;;;;;;5004905;28;20432;-67
2021/08/22 04:17:47;;;;;;;4.67;4.10;;;19.30;99.90;;;;;;5002088;28;20518;-67
2021/08/22 04:20:13;;;;;;;6.40;4.30;;;19.40;99.90;;;;;;5003151;28;20216;-66
2021/08/22 04:22:39;;;;;;;4.20;3.80;;;19.50;99.90;;;;;;4989138;28;20660;-65
2021/08/22 04:25:10;;;;;;;5.47;3.90;;;19.60;99.90;;;;;;5002915;28;20526;-66
2021/08/22 04:27:39;;;;;;;4.73;4.20;;;19.70;99.90;;;;;;5003238;28;20189;-67
2021/08/22 04:30:05;;;;;;;7.23;3.63;;;19.70;99.90;;;;;;5003703;28;20492;-68
2021/08/22 04:32:31;;;;;;;4.40;3.53;;;19.50;99.90;;;;;;5001961;28;20535;-68
2021/08/22 04:34:56;;;;;;;4.57;3.47;;;19.60;99.90;;;;;;5002232;28;20511;-68
2021/08/22 04:37:22;;;;;;;4.77;3.77;;;19.60;99.90;;;;;;5002356;28;20631;-67
2021/08/22 04:39:48;;;;;;;5.77;4.33;;;19.50;99.90;;;;;;5002976;28;20264;-68
2021/08/22 04:42:13;;;;;;;5.47;4.20;;;19.50;99.90;;;;;;5002531;28;20185;-68
2021/08/22 04:44:39;;;;;;;5.73;3.90;;;19.50;99.90;;;;;;5004827;28;20214;-68
2021/08/22 04:47:07;;;;;;;7.03;3.83;;;19.80;99.90;;;;;;5003136;28;20189;-67
2021/08/22 04:49:33;;;;;;;5.07;4.20;;;19.80;99.90;;;;;;5001314;28;20884;-64
2021/08/22 04:51:59;;;;;;;4.93;4.10;;;19.80;99.90;;;;;;5004017;28;20536;-65
2021/08/22 04:54:25;;;;;;;6.07;3.90;;;19.90;99.90;;;;;;5002785;28;20664;-65
2021/08/22 04:56:52;;;;;;;7.00;5.13;;;19.70;99.90;;;;;;5005030;28;20217;-64
2021/08/22 04:59:18;;;;;;;5.03;3.83;;;19.60;99.90;;;;;;5005593;28;20459;-66
2021/08/22 05:01:43;;;;;;;5.93;4.60;;;19.60;99.90;;;;;;5003159;28;20795;-65
2021/08/22 05:04:09;;;;;;;5.27;4.37;;;19.60;99.90;;;;;;5003966;28;20205;-65
2021/08/22 05:06:35;;;;;;;5.33;4.17;;;19.70;99.90;;;;;;5003018;28;20279;-65
2021/08/22 05:09:01;;;;;;;4.40;3.90;;;19.60;99.90;;;;;;5003470;28;20687;-65
2021/08/22 05:11:26;;;;;;;4.20;3.60;;;19.70;99.90;;;;;;5005408;28;20429;-67
2021/08/22 05:13:52;;;;;;;5.87;4.33;;;19.80;99.90;;;;;;5000677;28;20189;-66
2021/08/22 05:16:17;;;;;;;5.07;3.87;;;19.90;99.90;;;;;;5002230;28;20196;-65
2021/08/22 05:18:43;;;;;;;6.30;4.50;;;19.80;99.90;;;;;;5003264;28;20196;-65
2021/08/22 05:21:09;;;;;;;4.73;4.17;;;19.70;99.90;;;;;;4997758;28;20255;-64
2021/08/22 05:23:35;;;;;;;7.03;4.80;;;19.80;99.90;;;;;;5003391;28;20185;-66
2021/08/22 05:26:00;;;;;;;4.57;4.17;;;19.90;99.90;;;;;;5003738;28;20877;-65
2021/08/22 05:28:26;;;;;;;5.30;4.60;;;19.90;99.90;;;;;;5001498;28;20590;-65
2021/08/22 05:30:53;;;;;;;4.57;4.17;;;19.70;99.90;;;;;;5007975;28;20245;-65
2021/08/22 05:33:18;;;;;;;10.40;4.70;;;19.50;99.90;;;;;;5005063;28;20214;-66
2021/08/22 05:35:44;;;;;;;5.33;4.30;;;19.80;99.90;;;;;;5000096;28;20586;-65
2021/08/22 05:38:10;;;;;;;5.97;4.50;;;19.80;99.90;;;;;;5002864;28;20193;-65
2021/08/22 05:40:35;;;;;;;7.47;4.50;;;19.80;99.90;;;;;;5004812;28;20655;-67
2021/08/22 05:43:01;;;;;;;6.07;4.47;;;20.00;99.90;;;;;;5002033;28;20185;-66
2021/08/22 05:45:27;;;;;;;5.97;4.30;;;20.10;99.90;;;;;;5002228;28;20466;-67
2021/08/22 05:47:53;;;;;;;5.20;4.43;;;20.10;99.90;;;;;;5001352;28;20221;-68
2021/08/22 05:50:18;;;;;;;6.70;4.80;;;20.20;99.90;;;;;;4999500;28;20482;-67
2021/08/22 05:52:44;;;;;;;5.17;4.10;;;20.40;99.90;;;;;;5001913;28;20269;-68
2021/08/22 05:55:10;;;;;;;9.63;4.83;;;20.20;99.90;;;;;;5001330;28;20817;-68
2021/08/22 05:57:37;;;;;;;5.90;4.90;;;20.20;99.90;;;;;;5004944;28;20527;-67
2021/08/22 06:00:05;;;;;;;6.23;4.87;;;20.20;99.90;;;;;;5004151;28;20814;-67
2021/08/22 06:02:30;;;;;;;6.37;5.20;;;20.20;99.90;;;;;;5004055;28;20470;-68
2021/08/22 06:04:56;;;;;;;6.30;5.10;;;20.20;99.90;;;;;;5009482;28;20778;-68
2021/08/22 06:07:23;;;;;;;5.53;4.53;;;20.10;99.90;;;;;;5006369;28;20181;-66
2021/08/22 06:09:52;;;;;;;7.27;4.70;;;20.10;99.90;;;;;;5003994;28;20289;-65
2021/08/22 06:12:19;;;;;;;5.80;5.10;;;20.10;99.90;;;;;;5007727;28;20524;-65
2021/08/22 06:14:45;;;;;;;6.03;5.30;;;20.20;99.90;;;;;;5005409;28;20433;-65
2021/08/22 06:17:11;;;;;;;7.73;5.00;;;20.40;99.90;;;;;;5004041;28;20430;-65
2021/08/22 06:19:39;;;;;;;5.83;4.73;;;20.50;99.90;;;;;;5002835;28;20224;-65
2021/08/22 06:22:05;;;;;;;8.90;4.90;;;20.60;99.90;;;;;;5001384;28;20463;-65
2021/08/22 06:24:32;;;;;;;5.60;5.00;;;20.50;99.90;;;;;;5005764;28;20444;-65
2021/08/22 06:26:58;;;;;;;7.93;4.60;;;20.60;99.90;;;;;;5005163;28;20597;-65
2021/08/22 06:29:24;;;;;;;10.63;5.07;;;20.60;99.90;;;;;;5002470;28;20483;-65
2021/08/22 06:31:51;;;;;;;6.77;5.60;;;20.70;99.90;;;;;;5006468;28;20432;-64
2021/08/22 06:34:17;;;;;;;8.53;4.90;;;20.70;99.90;;;;;;5004374;28;20189;-65
2021/08/22 06:36:42;;;;;;;6.00;5.17;;;20.70;99.90;;;;;;5003480;28;20436;-65
2021/08/22 06:39:09;;;;;;;5.10;4.53;;;20.80;99.90;;;;;;5006248;28;20539;-65
2021/08/22 06:41:35;;;;;;;7.00;5.47;;;20.80;99.90;;;;;;5003617;28;20196;-64
2021/08/22 06:44:02;;;;;;;6.03;5.00;;;20.80;99.90;;;;;;5003668;28;20424;-65
2021/08/22 06:46:31;;;;;;;8.17;5.57;;;20.80;99.90;;;;;;5007083;28;20599;-65
2021/08/22 06:48:57;;;;;;;7.57;5.30;;;20.90;99.90;;;;;;5001167;28;20503;-65
2021/08/22 06:51:22;;;;;;;6.80;5.43;;;20.80;99.90;;;;;;5000771;28;21809;-65
2021/08/22 06:53:49;;;;;;;7.50;5.10;;;20.80;99.90;;;;;;5003413;28;20196;-64
2021/08/22 06:56:15;;;;;;;7.27;5.60;;;20.80;99.90;;;;;;5004166;28;20201;-64
2021/08/22 06:58:41;;;;;;;6.80;5.27;;;20.80;99.90;;;;;;5001660;28;20468;-65
2021/08/22 07:01:06;;;;;;;6.20;5.50;;;20.80;99.90;;;;;;5002487;28;20194;-64
2021/08/22 07:03:32;;;;;;;7.83;4.93;;;20.70;99.90;;;;;;4999328;28;20264;-64
2021/08/22 07:05:58;;;;;;;6.50;5.23;;;20.90;99.90;;;;;;5020567;28;20181;-65
2021/08/22 07:08:24;;;;;;;8.50;5.70;;;20.90;99.90;;;;;;5001383;28;20288;-67
2021/08/22 07:10:50;;;;;;;7.10;5.50;;;20.90;99.90;;;;;;4999738;28;20233;-68
2021/08/22 07:13:16;;;;;;;7.30;5.70;;;21.10;99.90;;;;;;5004259;28;20474;-67
2021/08/22 07:15:42;;;;;;;7.60;5.60;;;21.20;99.90;;;;;;5018538;28;20189;-67
2021/08/22 07:18:10;;;;;;;7.00;5.70;;;21.40;99.90;;;;;;5001909;28;20439;-68
2021/08/22 07:20:36;;;;;;;5.53;5.00;;;21.50;99.90;;;;;;5004885;28;20232;-67
2021/08/22 07:23:01;;;;;;;6.10;5.50;;;21.50;99.90;;;;;;5004217;28;21026;-68
2021/08/22 07:25:27;;;;;;;9.20;5.40;;;21.40;99.90;;;;;;5001644;28;20201;-68
2021/08/22 07:27:53;;;;;;;7.57;6.87;;;21.50;99.90;;;;;;4999762;28;20197;-68
2021/08/22 07:30:18;;;;;;;6.83;6.00;;;21.50;99.90;;;;;;5003698;28;20666;-67
2021/08/22 07:32:44;;;;;;;8.27;5.83;;;21.50;99.90;;;;;;5005376;28;20205;-67
2021/08/22 07:35:10;;;;;;;9.20;6.60;;;21.50;99.90;;;;;;5004507;28;20193;-69
2021/08/22 07:37:36;;;;;;;7.43;6.73;;;21.50;99.90;;;;;;5005604;28;20224;-68
2021/08/22 07:40:05;;;;;;;8.90;6.83;;;21.50;99.90;;;;;;5006636;28;20204;-67
2021/08/22 07:42:31;;;;;;;8.77;6.90;;;21.60;99.90;;;;;;5017009;28;20442;-69
2021/08/22 07:44:57;;;;;;;8.37;7.20;;;21.50;99.90;;;;;;5004132;28;20447;-65
2021/08/22 07:47:22;;;;;;;8.53;6.93;;;21.60;99.90;;;;;;5001150;28;20194;-65
2021/08/22 07:49:48;;;;;;;7.90;6.33;;;21.60;99.90;;;;;;4998513;28;20218;-65
2021/08/22 07:52:14;;;;;;;7.43;6.63;;;21.70;99.90;;;;;;5003516;28;20196;-66
2021/08/22 07:54:40;;;;;;;7.60;6.90;;;21.80;99.90;;;;;;5002791;28;20804;-66
2021/08/22 07:57:06;;;;;;;7.80;6.97;;;21.90;99.90;;;;;;5002874;28;20463;-66
2021/08/22 07:59:35;;;;;;;8.27;6.77;;;22.00;99.90;;;;;;5016343;28;20197;-66
2021/08/22 08:02:03;;;;;;;8.90;6.60;;;21.90;99.90;;;;;;4999969;28;20463;-66
2021/08/22 08:04:30;;;;;;;7.80;6.90;;;21.80;99.90;;;;;;5001522;28;20504;-65
2021/08/22 08:06:56;;;;;;;7.97;7.17;;;22.00;99.90;;;;;;5005299;28;20957;-65
2021/08/22 08:09:25;;;;;;;9.27;7.37;;;22.00;99.90;;;;;;5002005;28;20662;-64
2021/08/22 08:11:51;;;;;;;8.50;7.03;;;22.00;99.90;;;;;;4997052;28;20671;-66
2021/08/22 08:14:17;;;;;;;9.33;6.07;;;21.90;99.90;;;;;;5003488;28;20480;-67
2021/08/22 08:16:43;;;;;;;7.60;6.57;;;21.80;99.90;;;;;;4995910;28;20294;-66
2021/08/22 08:19:08;;;;;;;7.97;7.17;;;21.80;99.90;;;;;;5004401;28;20216;-65
2021/08/22 08:21:34;;;;;;;10.83;8.53;;;21.90;99.90;;;;;;5001261;28;20264;-67
2021/08/22 08:24:00;;;;;;;8.60;7.13;;;21.90;99.90;;;;;;5004270;28;20205;-65
2021/08/22 08:26:25;;;;;;;11.13;7.70;;;21.90;99.90;;;;;;5001992;28;20185;-65
2021/08/22 08:28:51;;;;;;;7.40;6.70;;;21.90;99.90;;;;;;4999381;28;20697;-65
2021/08/22 08:31:17;;;;;;;9.07;6.90;;;21.90;99.90;;;;;;4986962;28;20316;-65
2021/08/22 08:33:43;;;;;;;10.00;8.10;;;21.90;99.90;;;;;;5002093;28;20644;-65
2021/08/22 08:36:08;;;;;;;8.83;7.97;;;22.00;99.90;;;;;;5004360;28;20268;-65
2021/08/22 08:38:34;;;;;;;6.20;5.60;;;22.00;99.90;;;;;;5004864;28;20205;-65
2021/08/22 08:41:01;;;;;;;9.27;6.47;;;22.10;99.90;;;;;;5001519;28;20359;-65
2021/08/22 08:43:27;;;;;;;7.60;6.47;;;22.10;99.90;;;;;;5003919;28;20440;-64
2021/08/22 08:46:10;;;;;;;10.23;6.50;;;22.30;99.90;;;;;;5001884;28;20555;-66
2021/08/22 08:49:03;;;;;;;7.00;6.30;;;22.40;99.90;;;;;;5000710;28;20223;-64
2021/08/22 08:51:37;;;;;;;6.60;6.00;;;22.40;99.90;;;;;;5001081;28;21047;-65
2021/08/22 08:54:31;;;;;;;8.70;7.37;;;22.40;99.90;;;;;;5003767;28;20533;-64
2021/08/22 08:57:01;;;;;;;7.07;6.37;;;22.50;99.90;;;;;;4991003;28;20648;-65
2021/08/22 08:59:27;;;;;;;6.57;5.97;;;22.50;99.90;;;;;;5004381;28;20821;-65
2021/08/22 09:01:55;;;;;;;8.73;6.63;;;22.60;99.90;;;;;;5002558;28;20408;-64
2021/08/22 09:04:25;;;;;;;9.43;7.87;;;22.60;99.90;;;;;;5003391;28;20445;-65
2021/08/22 09:07:27;;;;;;;8.23;6.93;;;22.60;99.90;;;;;;5004235;28;20428;-65
2021/08/22 09:10:30;;;;;;;10.03;7.40;;;22.40;99.90;;;;;;5001926;28;20467;-67
2021/08/22 09:13:20;;;;;;;11.03;8.47;;;22.30;99.90;;;;;;5001648;28;20434;-65
2021/08/22 09:16:13;;;;;;;10.20;7.10;;;21.80;99.90;;;;;;5002132;28;20434;-65
2021/08/22 09:18:57;;;;;;;10.50;8.30;;;21.40;99.90;;;;;;5001818;28;20478;-65
2021/08/22 09:21:42;;;;;;;3.50;3.10;;;20.80;99.90;;;;;;5003528;28;20433;-65
2021/08/22 09:24:45;;;;;;;3.83;2.33;;;20.20;99.90;;;;;;4999131;28;20448;-65
2021/08/22 09:27:45;;;;;;;3.63;2.50;;;19.70;99.90;;;;;;5001105;28;20436;-66
2021/08/22 09:30:38;;;;;;;3.40;3.00;;;19.30;99.90;;;;;;4955865;28;20476;-64
2021/08/22 09:33:26;;;;;;;4.83;2.67;;;19.00;99.90;;;;;;5005036;28;20495;-65
2021/08/22 09:36:23;;;;;;;3.00;2.50;;;18.80;99.90;;;;;;5005386;28;20795;-65
2021/08/22 09:38:48;;;;;;;2.83;2.17;;;18.80;99.90;;;;;;5006565;28;20969;-65
2021/08/22 09:42:04;;;;;;;3.13;2.23;;;18.80;99.90;;;;;;5007424;28;20420;-66
2021/08/22 09:44:42;;;;;;;4.40;2.33;;;18.80;99.90;;;;;;4948382;28;20613;-65
2021/08/22 09:47:50;;;;;;;3.60;3.20;;;18.70;99.90;;;;;;4998169;28;20446;-65
2021/08/22 09:50:27;;;;;;;7.57;3.60;;;18.80;99.90;;;;;;5006627;28;20475;-66
2021/08/22 09:53:25;;;;;;;3.93;3.53;;;18.80;99.90;;;;;;5004374;28;20880;-68
2021/08/22 09:56:28;;;;;;;6.50;3.23;;;18.90;99.90;;;;;;4983987;28;20475;-65
2021/08/22 09:59:34;;;;;;;5.77;3.70;;;18.90;99.90;;;;;;5005101;28;20440;-65
2021/08/22 10:02:27;;;;;;;5.70;3.93;;;19.00;99.90;;;;;;5003625;28;20851;-66
2021/08/22 10:05:06;;;;;;;4.63;3.47;;;19.00;99.90;;;;;;5004540;28;20493;-65
2021/08/22 10:07:41;;;;;;;4.10;3.70;;;19.10;99.90;;;;;;5006256;28;20812;-65
2021/08/22 10:10:09;;;;;;;4.50;3.70;;;19.40;99.90;;;;;;5004977;28;20565;-66
2021/08/22 10:12:35;;;;;;;4.60;3.50;;;19.40;99.90;;;;;;5002978;28;20808;-66
2021/08/22 10:15:01;;;;;;;9.10;4.67;;;19.50;99.90;;;;;;5009060;28;20448;-65
2021/08/22 10:17:27;;;;;;;4.10;3.53;;;19.70;99.90;;;;;;5007922;28;20183;-65
2021/08/22 10:19:54;;;;;;;4.07;3.63;;;19.80;99.90;;;;;;5009004;28;20452;-65
2021/08/22 10:22:33;;;;;;;3.60;3.27;;;19.80;99.90;;;;;;5024406;28;20182;-66
2021/08/22 10:25:02;;;;;;;5.10;3.67;;;19.90;99.90;;;;;;5005306;28;20427;-66
2021/08/22 10:27:31;;;;;;;3.30;3.00;;;20.00;99.90;;;;;;5005521;28;20518;-66
2021/08/22 10:30:03;;;;;;;3.47;3.00;;;19.90;99.90;;;;;;5005662;28;20521;-69
2021/08/22 10:32:30;;;;;;;4.60;3.83;;;19.70;99.90;;;;;;5020192;28;20452;-66
2021/08/22 10:35:14;;;;;;;3.90;3.27;;;19.50;99.90;;;;;;5008920;28;20934;-66
2021/08/22 10:37:45;;;;;;;3.23;2.90;;;19.80;99.90;;;;;;5002559;28;20468;-65
2021/08/22 10:40:28;;;;;;;3.23;2.90;;;20.00;99.90;;;;;;5000628;28;20444;-64
2021/08/22 10:42:57;;;;;;;4.53;3.50;;;19.80;99.90;;;;;;5000559;28;20433;-65
2021/08/22 10:45:48;;;;;;;4.23;3.80;;;19.70;99.90;;;;;;4998731;28;20452;-65
2021/08/22 10:48:23;;;;;;;4.40;4.00;;;19.60;99.90;;;;;;4998914;28;20432;-65
2021/08/22 10:53:47;;;;;;;4.73;3.70;;;19.70;99.90;;;;;;5002143;28;20422;-64
2021/08/22 10:56:22;;;;;;;4.80;3.97;;;19.90;99.90;;;;;;5014620;28;20870;-65
2021/08/22 10:59:01;;;;;;;5.67;4.33;;;19.80;99.90;;;;;;5001958;28;21034;-66
2021/08/22 11:01:31;;;;;;;5.37;4.87;;;19.80;99.90;;;;;;5003904;28;20875;-65
2021/08/22 11:04:23;;;;;;;5.20;4.63;;;19.70;99.90;;;;;;4994402;28;20594;-64
2021/08/22 11:07:03;;;;;;;5.93;5.40;;;19.60;99.90;;;;;;5003173;28;20445;-67
2021/08/22 11:09:45;;;;;;;5.53;4.70;;;19.70;99.90;;;;;;5014835;28;20475;-68
2021/08/22 11:12:30;;;;;;;8.00;4.90;;;19.60;99.90;;;;;;5000690;28;20799;-66
2021/08/22 11:14:58;;;;;;;7.23;5.40;;;19.50;99.90;;;;;;5001065;28;20587;-66
2021/08/22 11:17:24;;;;;;;6.47;5.63;;;19.70;99.90;;;;;;5015967;28;20448;-68
2021/08/22 11:19:50;;;;;;;4.77;4.30;;;19.90;99.90;;;;;;5003251;28;20456;-67
2021/08/22 11:22:28;;;;;;;6.30;5.23;;;19.90;99.90;;;;;;5004175;28;20456;-68
2021/08/22 11:24:56;;;;;;;6.97;5.70;;;20.00;99.90;;;;;;5005016;28;20592;-67
2021/08/22 11:27:29;;;;;;;10.30;6.23;;;20.00;99.90;;;;;;5003823;28;20451;-67
2021/08/22 11:30:08;;;;;;;8.70;6.50;;;20.00;99.90;;;;;;5002658;28;20507;-68
2021/08/22 11:32:33;;;;;;;7.43;5.80;;;20.00;99.90;;;;;;5005837;28;20420;-68
2021/08/22 11:35:17;;;;;;;8.93;6.73;;;20.30;99.90;;;;;;5003385;28;20443;-68
2021/08/22 11:37:44;;;;;;;8.27;6.40;;;20.40;99.90;;;;;;5003818;28;20192;-68
2021/08/22 11:40:12;;;;;;;8.07;7.20;;;20.30;99.90;;;;;;5004500;28;20448;-68
2021/08/22 11:42:42;;;;;;;7.90;7.10;;;20.40;99.90;;;;;;5004545;28;20440;-67
2021/08/22 11:45:11;;;;;;;8.33;7.07;;;20.60;99.90;;;;;;5003428;28;20443;-68
2021/08/22 11:47:38;;;;;;;8.70;6.63;;;20.70;99.90;;;;;;5005427;28;20997;-66
2021/08/22 11:50:07;;;;;;;10.83;7.80;;;20.90;99.90;;;;;;5002633;28;20491;-65
2021/08/22 11:52:35;;;;;;;7.80;6.87;;;21.00;99.90;;;;;;5004584;28;20424;-68
2021/08/22 11:55:00;;;;;;;10.27;7.63;;;21.00;99.90;;;;;;5004024;28;20771;-67
2021/08/22 11:57:28;;;;;;;9.73;7.57;;;21.20;99.90;;;;;;5001763;28;20455;-69
2021/08/22 12:00:06;;;;;;;10.70;8.67;;;21.00;99.90;;;;;;5001249;28;20259;-70
2021/08/22 12:02:31;;;;;;;7.90;7.13;;;21.00;99.90;;;;;;5002687;28;20431;-67
2021/08/22 12:05:21;;;;;;;8.57;7.77;;;21.00;99.90;;;;;;5001902;28;20988;-69
2021/08/22 12:07:49;;;;;;;7.63;6.87;;;21.20;99.90;;;;;;5006038;28;20185;-68
2021/08/22 12:10:31;;;;;;;8.97;7.20;;;21.30;99.90;;;;;;5002814;28;21012;-67
2021/08/22 12:12:58;;;;;;;7.77;6.97;;;21.40;99.90;;;;;;5002771;28;20440;-69
2021/08/22 12:15:31;;;;;;;9.07;7.83;;;21.40;99.90;;;;;;5016215;28;20472;-68
2021/08/22 12:18:17;;;;;;;9.30;8.13;;;21.20;99.90;;;;;;5003019;28;20424;-67
2021/08/22 12:20:44;;;;;;;8.30;7.40;;;21.20;99.90;;;;;;5002138;28;20463;-68
2021/08/22 12:23:11;;;;;;;8.67;7.50;;;21.20;99.90;;;;;;5001928;28;20440;-67
2021/08/22 12:25:42;;;;;;;9.10;8.20;;;21.30;99.90;;;;;;5005002;28;20888;-67
2021/08/22 12:28:20;;;;;;;8.37;6.93;;;21.30;99.90;;;;;;5000499;28;20432;-67
2021/08/22 12:30:49;;;;;;;7.60;6.80;;;21.40;99.90;;;;;;5003579;28;20502;-69
2021/08/22 12:33:36;;;;;;;10.73;7.50;;;21.50;99.90;;;;;;5004599;28;20434;-68
2021/08/22 12:36:04;;;;;;;7.27;6.50;;;21.60;99.90;;;;;;5005179;28;21010;-69
2021/08/22 12:38:37;;;;;;;8.53;6.80;;;21.50;99.90;;;;;;5005420;28;20470;-69
2021/08/22 12:41:21;;;;;;;6.43;5.80;;;21.40;99.90;;;;;;5002539;28;20427;-68
2021/08/22 12:43:46;;;;;;;6.40;5.80;;;21.40;99.90;;;;;;5002996;28;20463;-67
2021/08/22 12:46:12;;;;;;;8.03;7.23;;;21.40;99.90;;;;;;5002433;28;20546;-68
2021/08/22 12:48:37;;;;;;;6.50;5.87;;;21.30;99.90;;;;;;5003003;28;20294;-68
2021/08/22 12:51:10;;;;;;;6.60;5.60;;;21.30;99.90;;;;;;5003770;28;20217;-68
2021/08/22 12:53:36;;;;;;;6.13;5.00;;;21.40;99.90;;;;;;5003007;28;20540;-68
2021/08/22 12:56:02;;;;;;;7.97;5.97;;;21.50;99.90;;;;;;5001505;28;20440;-68
2021/08/22 12:58:28;;;;;;;6.40;5.10;;;21.50;99.90;;;;;;5005044;28;20298;-68
2021/08/22 13:00:53;;;;;;;6.37;5.20;;;21.40;99.90;;;;;;5003106;28;20443;-67
2021/08/22 13:03:19;;;;;;;5.57;4.80;;;21.60;99.90;;;;;;5003126;28;20201;-68